createdAt,value
2023-03-24T00:02:46.658Z,12.67
2023-03-24T00:07:46.701Z,12.63
2023-03-24T00:12:47.987Z,12.52
2023-03-24T00:17:47.096Z,12.29
2023-03-24T00:22:49.737Z,12.28
2023-03-24T00:27:51.297Z,12.29
2023-03-24T00:32:51.253Z,12.26
2023-03-24T00:37:52.057Z,12.24
2023-03-24T00:42:53.084Z,12.20
2023-03-24T00:47:54.819Z,12.19
2023-03-24T00:52:54.303Z,12.13
2023-03-24T00:57:55.268Z,12.10
2023-03-24T01:02:56.105Z,12.05
2023-03-24T01:07:57.921Z,11.97
2023-03-24T01:13:00.572Z,11.92
2023-03-24T01:18:02.284Z,11.88
2023-03-24T01:23:01.429Z,11.85
2023-03-24T01:28:01.734Z,11.83
2023-03-24T01:33:00.789Z,11.76
2023-03-24T01:38:00.308Z,11.71
2023-03-24T01:43:00.376Z,11.67
2023-03-24T01:48:01.279Z,11.60
2023-03-24T01:53:01.359Z,11.56
2023-03-24T01:58:03.473Z,11.53
2023-03-24T02:03:21.061Z,11.49
2023-03-24T02:08:32.894Z,11.40
2023-03-24T02:13:31.798Z,11.40
2023-03-24T02:18:45.138Z,11.39
2023-03-24T02:23:59.728Z,11.41
2023-03-24T02:29:10.955Z,11.31
2023-03-24T02:34:52.505Z,11.24
2023-03-24T02:40:10.768Z,11.07
2023-03-24T02:45:21.446Z,11.02
2023-03-24T02:50:29.702Z,10.90
2023-03-24T02:55:34.359Z,11.08
2023-03-24T03:00:39.157Z,11.08
2023-03-24T03:05:42.878Z,10.84
2023-03-24T03:10:47.585Z,11.01
2023-03-24T03:15:51.366Z,11.17
2023-03-24T03:20:53.295Z,11.15
2023-03-24T03:26:04.276Z,11.10
2023-03-24T03:31:07.183Z,11.09
2023-03-24T03:36:11.009Z,11.01
2023-03-24T03:41:11.513Z,11.01
2023-03-24T03:46:10.634Z,10.97
2023-03-24T03:51:14.356Z,10.92
2023-03-24T03:56:25.777Z,10.93
2023-03-24T04:01:46.952Z,10.92
2023-03-24T04:07:10.832Z,10.90
2023-03-24T04:12:52.544Z,10.87
2023-03-24T04:18:32.865Z,10.82
2023-03-24T04:23:46.066Z,10.77
2023-03-24T04:28:58.212Z,10.68
2023-03-24T04:34:03.717Z,10.63
2023-03-24T04:39:04.890Z,10.56
2023-03-24T04:44:13.620Z,10.54
2023-03-24T04:49:31.241Z,10.54
2023-03-24T04:54:30.035Z,10.52
2023-03-24T04:59:37.174Z,10.53
2023-03-24T05:04:38.429Z,10.53
2023-03-24T05:09:47.971Z,10.56
2023-03-24T05:14:48.486Z,10.59
2023-03-24T05:19:54.073Z,10.59
2023-03-24T05:24:54.107Z,10.64
2023-03-24T05:29:55.040Z,10.66
2023-03-24T05:34:57.820Z,10.69
2023-03-24T05:40:02.605Z,10.66
2023-03-24T05:45:31.869Z,10.75
2023-03-24T05:50:33.356Z,10.84
2023-03-24T05:55:32.222Z,10.89
2023-03-24T06:00:44.714Z,10.99
2023-03-24T06:05:50.901Z,11.15
2023-03-24T06:10:49.858Z,11.03
2023-03-24T06:15:50.429Z,11.16
2023-03-24T06:21:03.931Z,11.38
2023-03-24T06:26:10.725Z,11.57
2023-03-24T06:31:21.490Z,11.50
2023-03-24T06:36:23.634Z,11.60
2023-03-24T06:41:23.037Z,11.58
2023-03-24T06:46:28.222Z,11.78
2023-03-24T06:51:27.886Z,11.83
2023-03-24T06:56:27.520Z,11.84
2023-03-24T07:01:32.276Z,12.05
2023-03-24T07:06:49.850Z,12.23
2023-03-24T07:11:55.707Z,12.36
2023-03-24T07:16:56.125Z,12.47
2023-03-24T07:22:03.789Z,12.45
2023-03-24T07:27:19.497Z,12.56
2023-03-24T07:32:19.882Z,12.73
2023-03-24T07:37:18.773Z,12.99
2023-03-24T07:42:17.761Z,13.21
2023-03-24T07:47:38.510Z,13.47
2023-03-24T07:52:37.877Z,13.52
2023-03-24T07:57:38.049Z,13.79
2023-03-24T08:02:41.712Z,13.92
2023-03-24T08:08:09.807Z,14.05
2023-03-24T08:13:09.093Z,14.26
2023-03-24T08:18:09.940Z,14.55
2023-03-24T08:23:09.245Z,14.52
2023-03-24T08:28:08.275Z,14.63
2023-03-24T08:33:09.298Z,14.92
2023-03-24T08:38:09.868Z,15.13
2023-03-24T08:43:10.833Z,15.28
2023-03-24T08:48:11.920Z,15.57
2023-03-24T08:53:12.437Z,16.04
2023-03-24T08:58:15.365Z,16.27
2023-03-24T09:03:22.628Z,16.95
2023-03-24T09:08:21.860Z,18.01
2023-03-24T09:13:22.342Z,18.80
2023-03-24T09:18:23.373Z,19.81
2023-03-24T09:23:22.748Z,20.55
2023-03-24T09:28:21.682Z,21.26
2023-03-24T09:33:20.547Z,21.53
2023-03-24T09:38:20.634Z,22.40
2023-03-24T09:43:28.609Z,23.15
2023-03-24T09:48:35.148Z,23.79
2023-03-24T09:53:43.932Z,23.47
2023-03-24T09:58:43.197Z,24.02
2023-03-24T10:03:42.973Z,24.12
2023-03-24T10:08:45.895Z,23.51
2023-03-24T10:13:55.462Z,24.57
2023-03-24T10:19:00.154Z,25.53
2023-03-24T10:24:08.108Z,25.79
2023-03-24T10:29:23.801Z,26.54
2023-03-24T10:34:27.491Z,27.22
2023-03-24T10:39:37.857Z,26.67
2023-03-24T10:44:43.729Z,26.96
2023-03-24T10:49:54.787Z,26.94
2023-03-24T10:54:59.662Z,27.67
2023-03-24T11:00:00.631Z,27.73
2023-03-24T11:05:02.475Z,27.01
2023-03-24T11:10:07.564Z,24.24
2023-03-24T11:15:22.055Z,24.10
2023-03-24T11:20:26.461Z,24.75
2023-03-24T11:25:33.760Z,26.04
2023-03-24T11:30:36.762Z,26.29
2023-03-24T11:35:41.650Z,26.25
2023-03-24T11:40:59.704Z,27.24
2023-03-24T11:46:03.687Z,28.43
2023-03-24T11:51:04.421Z,28.02
2023-03-24T11:56:13.204Z,28.09
2023-03-24T12:01:17.844Z,28.24
2023-03-24T12:06:31.595Z,29.39
2023-03-24T12:11:49.759Z,30.97
2023-03-24T12:16:59.054Z,30.92
2023-03-24T12:22:07.966Z,30.64
2023-03-24T12:27:21.166Z,30.94
2023-03-24T12:32:37.544Z,31.77
2023-03-24T12:37:48.596Z,32.10
2023-03-24T12:42:49.085Z,32.10
2023-03-24T12:48:05.917Z,32.89
2023-03-24T12:53:28.845Z,33.07
2023-03-24T12:58:39.567Z,32.58
2023-03-24T13:03:43.262Z,32.54
2023-03-24T13:08:49.421Z,32.95
2023-03-24T13:13:50.336Z,32.84
2023-03-24T13:18:53.394Z,33.07
2023-03-24T13:23:57.379Z,33.05
2023-03-24T13:34:31.271Z,33.23
2023-03-24T13:39:32.991Z,33.12
2023-03-24T13:44:40.368Z,32.34
2023-03-24T13:49:40.728Z,33.14
2023-03-24T13:54:40.833Z,31.90
2023-03-24T14:00:02.980Z,32.41
2023-03-24T14:05:10.124Z,32.67
2023-03-24T14:10:39.404Z,32.82
2023-03-24T14:15:45.842Z,32.84
2023-03-24T14:21:02.072Z,32.73
2023-03-24T14:26:01.165Z,33.30
2023-03-24T14:31:13.492Z,33.06
2023-03-24T14:36:14.823Z,33.48
2023-03-24T14:41:16.089Z,32.55
2023-03-24T14:46:51.733Z,32.69
2023-03-24T14:52:01.076Z,33.28
2023-03-24T14:57:00.909Z,32.88
2023-03-24T15:02:17.439Z,32.70
2023-03-24T15:07:25.956Z,32.67
2023-03-24T15:12:25.629Z,32.68
2023-03-24T15:17:26.444Z,32.10
2023-03-24T15:22:26.605Z,31.06
2023-03-24T15:27:27.573Z,30.85
2023-03-24T15:32:31.957Z,30.75
2023-03-24T15:37:40.609Z,30.58
2023-03-24T15:42:43.915Z,30.32
2023-03-24T15:47:43.067Z,29.84
2023-03-24T15:52:43.447Z,29.00
2023-03-24T15:57:43.020Z,28.88
2023-03-24T16:02:47.242Z,28.66
2023-03-24T16:07:57.260Z,28.37
2023-03-24T16:12:56.331Z,27.96
2023-03-24T16:17:55.545Z,27.58
2023-03-24T16:22:57.245Z,26.91
2023-03-24T16:27:56.490Z,26.43
2023-03-24T16:32:56.514Z,25.96
2023-03-24T16:37:57.125Z,25.56
2023-03-24T16:42:56.134Z,25.16
2023-03-24T16:47:55.141Z,24.87
2023-03-24T16:52:54.086Z,24.61
2023-03-24T16:57:54.605Z,24.29
2023-03-24T17:02:54.035Z,24.00
2023-03-24T17:07:53.021Z,23.74
2023-03-24T17:12:55.355Z,23.47
2023-03-24T17:17:55.043Z,23.16
2023-03-24T17:22:57.169Z,22.88
2023-03-24T17:27:57.814Z,22.59
2023-03-24T17:32:57.808Z,22.41
2023-03-24T17:37:56.950Z,22.16
2023-03-24T17:42:57.606Z,21.88
2023-03-24T17:47:56.534Z,21.75
2023-03-24T17:52:55.524Z,21.56
2023-03-24T17:57:54.379Z,21.33
2023-03-24T18:02:54.763Z,21.14
2023-03-24T18:07:53.679Z,21.04
2023-03-24T18:12:53.353Z,20.88
2023-03-24T18:17:57.535Z,20.76
2023-03-24T18:22:56.745Z,20.66
2023-03-24T18:27:56.357Z,20.52
2023-03-24T18:33:01.414Z,20.40
2023-03-24T18:38:00.406Z,20.24
2023-03-24T18:42:59.387Z,20.13
2023-03-24T18:47:59.739Z,20.07
2023-03-24T18:52:58.677Z,19.93
2023-03-24T18:57:57.579Z,19.78
2023-03-24T19:02:56.992Z,19.73
2023-03-24T19:07:58.642Z,19.65
2023-03-24T19:12:57.503Z,19.57
2023-03-24T19:17:58.241Z,19.46
2023-03-24T19:22:59.697Z,19.39
2023-03-24T19:27:58.629Z,19.32
2023-03-24T19:32:58.219Z,19.22
2023-03-24T19:37:59.609Z,18.77
2023-03-24T19:42:58.934Z,18.54
2023-03-24T19:47:58.101Z,18.58
2023-03-24T19:52:58.679Z,18.37
2023-03-24T19:57:57.680Z,18.22
2023-03-24T20:02:56.577Z,18.27
2023-03-24T20:07:59.649Z,17.99
2023-03-24T20:13:00.380Z,17.88
2023-03-24T20:17:59.558Z,17.38
2023-03-24T20:22:59.213Z,17.36
2023-03-24T20:28:13.256Z,17.06
2023-03-24T20:33:16.144Z,16.89
2023-03-24T20:38:21.149Z,16.61
2023-03-24T20:43:23.742Z,16.59
2023-03-24T20:48:25.245Z,16.22
2023-03-24T20:53:29.746Z,15.96
2023-03-24T20:58:35.880Z,16.20
2023-03-24T21:03:36.747Z,16.17
2023-03-24T21:08:48.884Z,16.34
2023-03-24T21:13:55.265Z,15.90
2023-03-24T21:19:02.122Z,15.83
2023-03-24T21:24:04.749Z,15.75
2023-03-24T21:29:08.333Z,15.88
2023-03-24T21:34:12.674Z,16.02
2023-03-24T21:39:16.685Z,15.53
2023-03-24T21:44:22.202Z,15.65
2023-03-24T21:49:27.264Z,15.78
2023-03-24T21:54:27.079Z,15.80
2023-03-24T21:59:44.612Z,15.88
2023-03-24T22:04:46.667Z,15.87
2023-03-24T22:09:51.486Z,15.96
2023-03-24T22:14:59.792Z,16.07
2023-03-24T22:20:15.530Z,16.26
2023-03-24T22:25:18.623Z,16.34
2023-03-24T22:30:23.938Z,16.43
2023-03-24T22:35:25.606Z,16.43
2023-03-24T22:40:27.762Z,16.43
2023-03-24T22:45:30.428Z,16.44
2023-03-24T22:50:30.712Z,16.45
2023-03-24T22:55:30.994Z,16.46
2023-03-24T23:00:33.942Z,16.41
2023-03-24T23:05:33.494Z,16.38
2023-03-24T23:10:32.374Z,16.36
2023-03-24T23:15:32.073Z,16.12
2023-03-24T23:20:32.330Z,16.16
2023-03-24T23:25:31.999Z,16.16
2023-03-24T23:30:30.869Z,16.06
2023-03-24T23:35:29.778Z,16.05
2023-03-24T23:40:30.153Z,16.06
2023-03-24T23:45:29.560Z,15.94
2023-03-24T23:50:29.403Z,15.87
2023-03-24T23:55:29.555Z,15.76
